Time;durP1;ratioP1;P1;durP2;ratioP2;P2;SDS_P1;SDS_P2;PMS_P1;PMS_P2;Temp;Humidity;BMP_temperature;BMP_pressure;BME280_temperature;BME280_humidity;BME280_pressure;Samples;Min_cycle;Max_cycle;Signal;HPM_P1;HPM_P2
2023/12/13 00:01:50;;;;;;;0.43;0.43;;;5.10;99.90;;;;;;4415685;32;20087;-73
2023/12/13 00:04:16;;;;;;;0.30;0.30;;;5.10;99.90;;;;;;4414904;32;20077;-72
2023/12/13 00:06:41;;;;;;;0.40;0.40;;;5.20;99.90;;;;;;4414364;32;20077;-72
2023/12/13 00:09:08;;;;;;;0.50;0.50;;;5.10;99.90;;;;;;4412805;32;20104;-72
2023/12/13 00:11:34;;;;;;;0.50;0.50;;;5.20;99.90;;;;;;4414229;32;20081;-73
2023/12/13 00:13:59;;;;;;;0.37;0.37;;;5.20;99.90;;;;;;4413978;32;20388;-73
2023/12/13 00:16:25;;;;;;;0.40;0.40;;;5.10;99.90;;;;;;4410220;32;20375;-73
2023/12/13 00:18:50;;;;;;;0.60;0.60;;;5.20;99.90;;;;;;4411746;32;20075;-75
2023/12/13 00:21:17;;;;;;;1.80;0.60;;;5.10;99.90;;;;;;4413093;32;20066;-72
2023/12/13 00:23:44;;;;;;;0.65;0.65;;;5.20;99.90;;;;;;4413573;32;20068;-72
2023/12/13 00:26:16;;;;;;;0.75;0.55;;;5.20;99.90;;;;;;4409912;32;20078;-73
2023/12/13 00:28:41;;;;;;;0.75;0.75;;;5.10;99.90;;;;;;4414245;32;20091;-74
2023/12/13 00:31:09;;;;;;;5.15;1.50;;;5.10;99.90;;;;;;4421865;32;20049;-74
2023/12/13 00:33:34;;;;;;;0.50;0.50;;;5.10;99.90;;;;;;4422249;32;20090;-74
2023/12/13 00:35:59;;;;;;;0.85;0.85;;;5.10;99.90;;;;;;4426234;32;20070;-74
2023/12/13 00:38:25;;;;;;;0.30;0.30;;;5.10;99.90;;;;;;4423180;32;20197;-74
2023/12/13 00:40:50;;;;;;;0.88;0.88;;;5.10;99.90;;;;;;4423712;32;20081;-74
2023/12/13 00:43:16;;;;;;;0.60;0.60;;;5.10;99.90;;;;;;4421937;32;20221;-74
2023/12/13 00:45:42;;;;;;;1.45;1.35;;;5.00;99.90;;;;;;4426574;32;20057;-74
2023/12/13 00:48:08;;;;;;;0.82;0.82;;;5.10;99.90;;;;;;4424715;32;20074;-75
2023/12/13 00:50:33;;;;;;;6.12;1.30;;;5.10;99.90;;;;;;4424775;32;20070;-74
2023/12/13 00:52:59;;;;;;;0.70;0.70;;;5.20;99.90;;;;;;4428434;32;20450;-74
2023/12/13 00:55:24;;;;;;;0.57;0.57;;;5.20;99.90;;;;;;4428312;32;20070;-75
2023/12/13 00:57:50;;;;;;;5.10;1.67;;;5.10;99.90;;;;;;4425702;32;20469;-74
2023/12/13 01:00:15;;;;;;;1.08;0.98;;;5.10;99.90;;;;;;4424530;32;20083;-74
2023/12/13 01:02:41;;;;;;;16.62;2.80;;;5.10;99.90;;;;;;4423519;32;20070;-74
2023/12/13 01:05:07;;;;;;;0.50;0.50;;;5.00;99.90;;;;;;4427533;32;20137;-74
2023/12/13 01:07:32;;;;;;;0.40;0.40;;;5.00;99.90;;;;;;4429472;32;20093;-74
2023/12/13 01:09:58;;;;;;;0.62;0.62;;;5.00;99.90;;;;;;4427692;32;20121;-73
2023/12/13 01:12:23;;;;;;;0.37;0.37;;;5.00;99.90;;;;;;4429352;32;20156;-74
2023/12/13 01:14:49;;;;;;;0.68;0.68;;;5.00;99.90;;;;;;4429451;32;20095;-74
2023/12/13 01:17:14;;;;;;;1.55;1.15;;;5.10;99.90;;;;;;4427790;32;20070;-74
2023/12/13 01:19:40;;;;;;;1.15;0.88;;;5.20;99.90;;;;;;4429367;32;20189;-73
2023/12/13 01:22:05;;;;;;;0.80;0.80;;;5.20;99.90;;;;;;4431072;32;20097;-74
2023/12/13 01:24:31;;;;;;;0.52;0.50;;;5.10;99.90;;;;;;4428026;32;20099;-74
2023/12/13 01:26:57;;;;;;;0.55;0.55;;;5.10;99.90;;;;;;4430065;32;20087;-74
2023/12/13 01:29:22;;;;;;;0.95;0.95;;;5.10;99.90;;;;;;4427918;32;20184;-74
2023/12/13 01:31:48;;;;;;;1.12;0.90;;;5.10;99.90;;;;;;4432437;32;20081;-74
2023/12/13 01:34:15;;;;;;;1.77;1.58;;;5.10;99.90;;;;;;4426077;32;20106;-74
2023/12/13 01:36:41;;;;;;;14.52;1.52;;;5.10;99.90;;;;;;4430136;32;20073;-74
2023/12/13 01:39:07;;;;;;;1.25;1.15;;;5.00;99.90;;;;;;4420148;32;20085;-72
2023/12/13 01:41:33;;;;;;;0.70;0.70;;;5.00;99.90;;;;;;4414546;32;20081;-71
2023/12/13 01:43:58;;;;;;;0.60;0.60;;;5.00;99.90;;;;;;4414109;32;20134;-71
2023/12/13 01:46:24;;;;;;;1.02;0.90;;;5.00;99.90;;;;;;4418077;32;20069;-71
2023/12/13 01:48:50;;;;;;;1.48;1.37;;;5.00;99.90;;;;;;4414751;32;20065;-72
2023/12/13 01:51:16;;;;;;;1.37;1.27;;;5.00;99.90;;;;;;4414175;32;20497;-72
2023/12/13 01:53:42;;;;;;;1.08;1.02;;;5.00;99.90;;;;;;4412440;32;20089;-73
2023/12/13 01:56:11;;;;;;;0.70;0.70;;;5.00;99.90;;;;;;4414520;32;20417;-73
2023/12/13 01:58:38;;;;;;;2.85;1.58;;;4.90;99.90;;;;;;4415011;32;20128;-72
2023/12/13 02:01:05;;;;;;;9.23;1.35;;;5.00;99.90;;;;;;4414748;32;20094;-72
2023/12/13 02:03:33;;;;;;;0.65;0.65;;;5.00;99.90;;;;;;4415022;32;20085;-72
2023/12/13 02:06:00;;;;;;;0.93;0.93;;;5.00;99.90;;;;;;4417652;32;20095;-72
2023/12/13 02:08:26;;;;;;;0.80;0.80;;;5.00;99.90;;;;;;4416659;32;20537;-72
2023/12/13 02:10:52;;;;;;;0.65;0.65;;;5.00;99.90;;;;;;4412055;32;20089;-73
2023/12/13 02:13:17;;;;;;;0.90;0.90;;;5.00;99.90;;;;;;4415426;32;20464;-73
2023/12/13 02:15:44;;;;;;;1.30;1.17;;;5.00;99.90;;;;;;4412969;32;20062;-72
2023/12/13 02:18:09;;;;;;;1.77;1.33;;;5.00;99.90;;;;;;4414249;32;20132;-72
2023/12/13 02:20:35;;;;;;;0.88;0.88;;;5.00;99.90;;;;;;4414079;32;21170;-72
2023/12/13 02:23:01;;;;;;;1.45;1.10;;;5.00;99.90;;;;;;4410907;32;20533;-73
2023/12/13 02:26:05;;;;;;;0.75;0.62;;;5.00;99.90;;;;;;4413013;32;20073;-73
2023/12/13 02:28:31;;;;;;;0.90;0.82;;;5.10;99.90;;;;;;4402774;32;20177;-72
2023/12/13 02:30:58;;;;;;;0.95;0.68;;;5.00;99.90;;;;;;4413887;32;20157;-72
2023/12/13 02:33:25;;;;;;;1.15;1.05;;;5.00;99.90;;;;;;4414385;32;20128;-73
2023/12/13 02:35:52;;;;;;;2.15;1.10;;;5.10;99.90;;;;;;4414549;32;20078;-72
2023/12/13 02:38:18;;;;;;;0.70;0.70;;;5.10;99.90;;;;;;4414617;32;20128;-72
2023/12/13 02:40:43;;;;;;;0.80;0.80;;;5.10;99.90;;;;;;4413112;32;20522;-73
2023/12/13 02:43:09;;;;;;;0.62;0.62;;;5.10;99.90;;;;;;4412584;32;20066;-73
2023/12/13 02:45:34;;;;;;;0.77;0.77;;;5.10;99.90;;;;;;4413924;32;20090;-73
2023/12/13 02:48:00;;;;;;;0.85;0.85;;;5.20;99.90;;;;;;4412968;32;20075;-75
2023/12/13 02:50:25;;;;;;;0.90;0.75;;;5.10;99.90;;;;;;4413457;32;20077;-73
2023/12/13 02:52:51;;;;;;;2.40;1.15;;;5.10;99.90;;;;;;4412117;32;20077;-75
2023/12/13 02:55:16;;;;;;;13.52;3.58;;;5.10;99.90;;;;;;4412353;32;20505;-72
2023/12/13 02:57:42;;;;;;;0.95;0.82;;;5.10;99.90;;;;;;4413474;32;20058;-72
2023/12/13 03:02:36;;;;;;;0.45;0.45;;;5.10;99.90;;;;;;4413290;32;20505;-73
2023/12/13 03:05:03;;;;;;;0.50;0.50;;;5.10;99.90;;;;;;4416452;32;20057;-72
2023/12/13 03:07:29;;;;;;;1.30;0.80;;;5.10;99.90;;;;;;4414251;32;20450;-73
2023/12/13 03:09:54;;;;;;;2.90;1.23;;;5.10;99.90;;;;;;4411672;32;20062;-72
2023/12/13 03:12:20;;;;;;;3.50;2.10;;;5.10;99.90;;;;;;4413876;32;20058;-73
2023/12/13 03:14:45;;;;;;;0.68;0.68;;;5.10;99.90;;;;;;4413331;32;20065;-72
2023/12/13 03:17:11;;;;;;;0.85;0.85;;;5.10;99.90;;;;;;4412731;32;20055;-72
2023/12/13 03:19:36;;;;;;;2.12;1.23;;;5.20;99.90;;;;;;4412885;32;20073;-73
2023/12/13 03:22:02;;;;;;;1.27;1.20;;;5.20;99.90;;;;;;4413314;32;20133;-74
2023/12/13 03:24:28;;;;;;;0.75;0.75;;;5.20;99.90;;;;;;4411816;32;20492;-75
2023/12/13 03:26:53;;;;;;;1.42;1.20;;;5.20;99.90;;;;;;4410392;32;20093;-73
2023/12/13 03:29:19;;;;;;;0.80;0.80;;;5.20;99.90;;;;;;4408804;32;20422;-72
2023/12/13 03:31:44;;;;;;;5.68;2.25;;;5.20;99.90;;;;;;4410380;32;20476;-74
2023/12/13 03:34:10;;;;;;;4.35;1.55;;;5.20;99.90;;;;;;4412193;32;20175;-72
2023/12/13 03:36:35;;;;;;;2.75;1.27;;;5.20;99.90;;;;;;4413128;32;20061;-72
2023/12/13 03:39:01;;;;;;;0.98;0.98;;;5.20;99.90;;;;;;4414634;32;20061;-75
2023/12/13 03:41:26;;;;;;;0.95;0.93;;;5.20;99.90;;;;;;4411729;32;20073;-73
2023/12/13 03:43:52;;;;;;;0.60;0.60;;;5.20;99.90;;;;;;4413939;32;20430;-75
2023/12/13 03:46:17;;;;;;;1.75;1.15;;;5.20;99.90;;;;;;4412155;32;20144;-72
2023/12/13 03:48:43;;;;;;;0.70;0.70;;;5.30;99.90;;;;;;4415382;32;20065;-72
2023/12/13 03:51:08;;;;;;;3.15;1.67;;;5.30;99.90;;;;;;4414901;32;20058;-73
2023/12/13 03:53:34;;;;;;;1.08;0.98;;;5.30;99.90;;;;;;4413720;32;20078;-73
2023/12/13 03:55:59;;;;;;;0.73;0.73;;;5.30;99.90;;;;;;4412261;32;20097;-74
2023/12/13 03:58:25;;;;;;;2.45;1.20;;;5.30;99.90;;;;;;4410305;32;20065;-76
2023/12/13 04:00:51;;;;;;;6.37;2.17;;;5.40;99.90;;;;;;4415244;32;20533;-75
2023/12/13 04:03:16;;;;;;;0.60;0.60;;;5.40;99.90;;;;;;4414535;32;20070;-75
2023/12/13 04:05:42;;;;;;;2.90;1.40;;;5.40;99.90;;;;;;4413327;32;20511;-75
2023/12/13 04:08:08;;;;;;;0.65;0.65;;;5.40;99.90;;;;;;4411305;32;20588;-75
2023/12/13 04:10:34;;;;;;;0.80;0.80;;;5.40;99.90;;;;;;4413166;32;20058;-75
2023/12/13 04:12:59;;;;;;;2.95;1.77;;;5.40;99.90;;;;;;4414129;32;20094;-76
2023/12/13 04:15:25;;;;;;;0.75;0.75;;;5.40;99.90;;;;;;4414025;32;20050;-76
2023/12/13 04:17:50;;;;;;;0.95;0.77;;;5.40;99.90;;;;;;4415961;32;20161;-75
2023/12/13 04:20:16;;;;;;;1.42;1.12;;;5.40;99.90;;;;;;4417310;32;20450;-75
2023/12/13 04:22:42;;;;;;;3.95;1.45;;;5.50;99.90;;;;;;4413833;32;20576;-75
2023/12/13 04:25:08;;;;;;;0.60;0.60;;;5.50;99.90;;;;;;4409690;32;20066;-76
2023/12/13 04:27:33;;;;;;;3.55;1.85;;;5.50;99.90;;;;;;4413171;32;20636;-75
2023/12/13 04:29:59;;;;;;;1.00;0.90;;;5.50;99.90;;;;;;4412321;32;20062;-75
2023/12/13 04:32:24;;;;;;;1.67;1.50;;;5.60;99.90;;;;;;4412330;32;20561;-75
2023/12/13 04:34:50;;;;;;;0.65;0.65;;;5.50;99.90;;;;;;4411106;32;20138;-76
2023/12/13 04:37:15;;;;;;;1.48;1.33;;;5.50;99.90;;;;;;4415911;32;20135;-76
2023/12/13 04:39:41;;;;;;;1.00;1.00;;;5.50;99.90;;;;;;4414522;32;20560;-75
2023/12/13 04:42:07;;;;;;;0.68;0.68;;;5.60;99.90;;;;;;4416110;32;20093;-75
2023/12/13 04:44:33;;;;;;;2.17;1.20;;;5.60;99.90;;;;;;4414056;32;21401;-76
2023/12/13 04:46:58;;;;;;;0.93;0.93;;;5.60;99.90;;;;;;4415784;32;20093;-75
2023/12/13 04:49:23;;;;;;;0.57;0.57;;;5.60;99.90;;;;;;4417735;32;20132;-75
2023/12/13 04:51:49;;;;;;;0.60;0.60;;;5.60;99.90;;;;;;4414916;32;20105;-75
2023/12/13 04:54:15;;;;;;;4.18;1.58;;;5.60;99.90;;;;;;4414268;32;20070;-76
2023/12/13 04:56:41;;;;;;;3.95;2.25;;;5.60;99.90;;;;;;4416336;32;20077;-75
2023/12/13 04:59:06;;;;;;;1.25;1.08;;;5.60;99.90;;;;;;4417735;32;20574;-75
2023/12/13 05:01:32;;;;;;;14.10;1.17;;;5.60;99.90;;;;;;4414823;32;20565;-75
2023/12/13 05:03:57;;;;;;;1.17;1.17;;;5.60;99.90;;;;;;4418537;32;20065;-75
2023/12/13 05:06:22;;;;;;;0.70;0.70;;;5.50;99.90;;;;;;4415423;32;20593;-75
2023/12/13 05:08:48;;;;;;;2.17;1.70;;;5.50;99.90;;;;;;4417174;32;20137;-75
2023/12/13 05:11:14;;;;;;;1.20;1.10;;;5.50;99.90;;;;;;4415229;32;20073;-75
2023/12/13 05:13:39;;;;;;;1.23;1.05;;;5.50;99.90;;;;;;4419111;32;20663;-75
2023/12/13 05:16:06;;;;;;;0.88;0.88;;;5.50;99.90;;;;;;4418741;32;20098;-75
2023/12/13 05:18:31;;;;;;;1.95;1.12;;;5.50;99.90;;;;;;4418526;32;20066;-75
2023/12/13 05:20:57;;;;;;;1.65;0.93;;;5.60;99.90;;;;;;4411319;32;20678;-75
2023/12/13 05:23:22;;;;;;;4.10;1.48;;;5.60;99.90;;;;;;4414948;32;20094;-75
2023/12/13 05:25:48;;;;;;;1.00;1.00;;;5.60;99.90;;;;;;4414995;32;20120;-75
2023/12/13 05:28:13;;;;;;;1.75;1.48;;;5.70;99.90;;;;;;4416714;32;20082;-75
2023/12/13 05:30:39;;;;;;;2.22;1.77;;;5.70;99.90;;;;;;4416950;32;20140;-75
2023/12/13 05:33:07;;;;;;;1.20;1.10;;;5.70;99.90;;;;;;4418705;32;20101;-75
2023/12/13 05:35:32;;;;;;;0.95;0.88;;;5.70;99.90;;;;;;4419085;32;20195;-75
2023/12/13 05:37:58;;;;;;;0.77;0.77;;;5.60;99.90;;;;;;4419856;32;20070;-75
2023/12/13 05:40:24;;;;;;;1.25;1.17;;;5.60;99.90;;;;;;4420037;32;20478;-75
2023/12/13 05:42:49;;;;;;;4.30;1.42;;;5.60;99.90;;;;;;4420866;32;20062;-75
2023/12/13 05:45:15;;;;;;;0.82;0.82;;;5.60;99.90;;;;;;4409904;32;20159;-75
2023/12/13 05:47:40;;;;;;;1.95;1.65;;;5.70;99.90;;;;;;4424157;32;21731;-75
2023/12/13 05:50:06;;;;;;;3.70;1.85;;;5.70;99.90;;;;;;4426076;32;20174;-75
2023/12/13 05:52:32;;;;;;;8.57;1.75;;;5.60;99.90;;;;;;4420790;32;20065;-75
2023/12/13 05:54:59;;;;;;;0.77;0.77;;;5.70;99.90;;;;;;4427213;32;20120;-75
2023/12/13 05:57:24;;;;;;;0.40;0.40;;;5.70;99.90;;;;;;4423560;32;20074;-75
2023/12/13 05:59:50;;;;;;;0.95;0.95;;;5.70;99.90;;;;;;4425046;32;20082;-74
2023/12/13 06:02:15;;;;;;;1.73;1.48;;;5.70;99.90;;;;;;4423218;32;20081;-75
2023/12/13 06:04:42;;;;;;;0.65;0.65;;;5.70;99.90;;;;;;4424540;32;20072;-75
2023/12/13 06:07:10;;;;;;;0.65;0.65;;;5.70;99.90;;;;;;4410699;32;20061;-75
2023/12/13 06:09:35;;;;;;;2.28;1.30;;;5.70;99.90;;;;;;4425054;32;20466;-75
2023/12/13 06:12:02;;;;;;;1.10;0.95;;;5.70;99.90;;;;;;4420829;32;20108;-75
2023/12/13 06:14:29;;;;;;;1.30;1.02;;;5.70;99.90;;;;;;4412330;32;20341;-75
2023/12/13 06:16:55;;;;;;;4.12;2.47;;;5.70;99.90;;;;;;4419917;32;20073;-75
2023/12/13 06:19:21;;;;;;;1.40;1.30;;;5.70;99.90;;;;;;4421937;32;20123;-75
2023/12/13 06:21:46;;;;;;;1.75;1.42;;;5.70;99.90;;;;;;4414493;32;20090;-75
2023/12/13 06:24:12;;;;;;;0.88;0.88;;;5.70;99.90;;;;;;4424072;32;20069;-75
2023/12/13 06:26:38;;;;;;;0.88;0.88;;;5.70;99.90;;;;;;4410791;32;20081;-74
2023/12/13 06:29:03;;;;;;;22.55;2.05;;;5.70;99.90;;;;;;4418421;32;20136;-75
2023/12/13 06:31:29;;;;;;;4.22;1.25;;;5.70;99.90;;;;;;4425725;32;20085;-75
2023/12/13 06:33:55;;;;;;;5.87;1.62;;;5.70;99.90;;;;;;4425475;32;20088;-75
2023/12/13 06:36:20;;;;;;;1.75;1.65;;;5.70;99.90;;;;;;4426214;32;20178;-75
2023/12/13 06:38:46;;;;;;;1.55;1.20;;;5.80;99.90;;;;;;4418334;32;20101;-75
2023/12/13 06:41:12;;;;;;;1.15;1.05;;;5.80;99.90;;;;;;4419493;32;20121;-75
2023/12/13 06:43:37;;;;;;;0.55;0.55;;;5.80;99.90;;;;;;4417691;32;20791;-75
2023/12/13 06:46:03;;;;;;;0.93;0.80;;;5.70;99.90;;;;;;4418261;32;20406;-75
2023/12/13 06:48:29;;;;;;;1.42;1.25;;;5.60;99.90;;;;;;4419483;32;20507;-75
2023/12/13 06:50:55;;;;;;;1.48;1.10;;;5.60;99.90;;;;;;4417350;32;20144;-74
2023/12/13 06:53:21;;;;;;;0.90;0.90;;;5.70;99.90;;;;;;4417595;32;20152;-74
2023/12/13 06:55:46;;;;;;;1.27;1.17;;;5.70;99.90;;;;;;4407287;32;20469;-75
2023/12/13 06:58:13;;;;;;;0.65;0.65;;;5.70;99.90;;;;;;4409290;32;20101;-75
2023/12/13 07:00:38;;;;;;;2.40;1.92;;;5.70;99.90;;;;;;4413598;32;20118;-74
2023/12/13 07:03:04;;;;;;;1.58;1.08;;;5.70;99.90;;;;;;4415518;32;20149;-75
2023/12/13 07:05:29;;;;;;;0.62;0.62;;;5.70;99.90;;;;;;4417648;32;20077;-74
2023/12/13 07:07:55;;;;;;;0.95;0.93;;;5.80;99.90;;;;;;4411742;32;20082;-74
2023/12/13 07:10:21;;;;;;;1.35;1.10;;;5.80;99.90;;;;;;4407783;32;20086;-74
2023/12/13 07:12:47;;;;;;;1.55;1.17;;;5.80;99.90;;;;;;4409811;32;20089;-74
2023/12/13 07:15:13;;;;;;;1.20;1.10;;;5.80;99.90;;;;;;4402759;32;20454;-75
2023/12/13 07:17:39;;;;;;;1.45;1.00;;;5.80;99.90;;;;;;4414700;32;20074;-75
2023/12/13 07:20:06;;;;;;;1.40;1.30;;;5.80;99.90;;;;;;4416888;32;20152;-74
2023/12/13 07:22:31;;;;;;;3.25;1.33;;;5.80;99.90;;;;;;4404518;32;20742;-74
2023/12/13 07:24:57;;;;;;;5.00;1.17;;;5.90;99.90;;;;;;4406989;32;20081;-74
2023/12/13 07:27:22;;;;;;;4.10;1.90;;;5.90;99.90;;;;;;4409500;32;20459;-74
2023/12/13 07:29:48;;;;;;;5.12;1.20;;;5.90;99.90;;;;;;4390879;32;20759;-75
2023/12/13 07:32:13;;;;;;;0.82;0.82;;;5.90;99.90;;;;;;4379859;32;20089;-74
2023/12/13 07:34:41;;;;;;;1.00;0.73;;;5.90;99.90;;;;;;4380117;32;20185;-76
2023/12/13 07:37:07;;;;;;;0.70;0.70;;;5.90;99.90;;;;;;4389900;32;20699;-76
2023/12/13 07:39:35;;;;;;;0.40;0.40;;;5.90;99.90;;;;;;4387040;32;20134;-73
2023/12/13 07:42:00;;;;;;;3.35;1.40;;;5.90;99.90;;;;;;4382607;32;20108;-75
2023/12/13 07:44:28;;;;;;;0.93;0.93;;;5.90;99.90;;;;;;4385453;32;20560;-74
2023/12/13 07:46:54;;;;;;;1.52;1.08;;;5.90;99.90;;;;;;4384816;32;20160;-74
2023/12/13 07:49:19;;;;;;;2.75;1.20;;;5.90;99.90;;;;;;4374661;32;21636;-75
2023/12/13 07:51:45;;;;;;;0.50;0.50;;;5.90;99.90;;;;;;4377671;32;20096;-74
2023/12/13 07:54:13;;;;;;;1.02;0.95;;;6.00;99.90;;;;;;4373646;32;20213;-76
2023/12/13 07:56:38;;;;;;;0.65;0.65;;;6.00;99.90;;;;;;4367334;32;20818;-75
2023/12/13 07:59:03;;;;;;;2.22;1.10;;;6.00;99.90;;;;;;4380900;32;20161;-76
2023/12/13 08:01:29;;;;;;;0.60;0.60;;;6.10;99.90;;;;;;4376360;32;20466;-74
2023/12/13 08:03:56;;;;;;;1.17;1.17;;;6.10;99.90;;;;;;4379853;32;21650;-75
2023/12/13 08:06:21;;;;;;;1.02;0.90;;;6.10;99.90;;;;;;4389009;32;20553;-76
2023/12/13 08:08:47;;;;;;;1.17;1.10;;;6.10;99.90;;;;;;4381607;32;20731;-75
2023/12/13 08:11:13;;;;;;;1.12;0.98;;;6.10;99.90;;;;;;4376215;32;20984;-75
2023/12/13 08:13:38;;;;;;;0.60;0.60;;;6.10;99.90;;;;;;4376826;32;20093;-73
2023/12/13 08:16:05;;;;;;;1.27;1.12;;;6.20;99.90;;;;;;4378974;32;20121;-74
2023/12/13 08:18:31;;;;;;;40.70;1.50;;;6.20;99.90;;;;;;4376171;32;20077;-75
2023/12/13 08:20:57;;;;;;;7.25;1.58;;;6.30;99.90;;;;;;4379775;32;20084;-73
2023/12/13 08:23:22;;;;;;;0.45;0.45;;;6.20;99.90;;;;;;4384276;32;20113;-74
2023/12/13 08:25:48;;;;;;;0.70;0.70;;;6.20;99.90;;;;;;4382263;32;20164;-76
2023/12/13 08:28:14;;;;;;;0.60;0.60;;;6.20;99.90;;;;;;4379790;32;20097;-76
2023/12/13 08:30:39;;;;;;;1.15;0.90;;;6.20;99.90;;;;;;4381260;32;20677;-75
2023/12/13 08:33:05;;;;;;;0.60;0.60;;;6.20;99.90;;;;;;4381573;32;20108;-74
2023/12/13 08:35:30;;;;;;;0.40;0.40;;;6.20;99.90;;;;;;4385855;32;21392;-76
2023/12/13 08:37:57;;;;;;;0.45;0.45;;;6.20;99.90;;;;;;4394224;32;20090;-73
2023/12/13 08:40:23;;;;;;;0.75;0.75;;;6.20;99.90;;;;;;4409173;32;20082;-75
2023/12/13 08:42:48;;;;;;;1.42;1.33;;;6.10;99.90;;;;;;4405328;32;20379;-75
2023/12/13 08:45:15;;;;;;;3.87;1.15;;;6.20;99.90;;;;;;4406039;32;20260;-75
2023/12/13 08:47:41;;;;;;;0.70;0.70;;;6.10;99.90;;;;;;4402959;32;20118;-77
2023/12/13 08:50:07;;;;;;;1.42;1.30;;;6.10;99.90;;;;;;4401325;32;20093;-76
2023/12/13 08:52:33;;;;;;;2.60;1.10;;;6.10;99.90;;;;;;4392882;32;20061;-76
2023/12/13 08:54:58;;;;;;;2.95;0.88;;;6.10;99.90;;;;;;4396531;32;20105;-76
2023/12/13 08:57:24;;;;;;;1.60;1.35;;;6.10;99.90;;;;;;4380922;27;20109;-62
2023/12/13 08:59:49;;;;;;;0.40;0.40;;;6.10;99.90;;;;;;4374154;32;20073;-61
2023/12/13 09:02:15;;;;;;;0.45;0.45;;;6.10;99.90;;;;;;4378585;32;20094;-61
2023/12/13 09:04:41;;;;;;;0.80;0.80;;;6.10;99.90;;;;;;4364567;32;20094;-63
2023/12/13 09:07:06;;;;;;;0.65;0.65;;;6.10;99.90;;;;;;4380982;32;20101;-64
2023/12/13 09:09:32;;;;;;;0.40;0.40;;;6.10;99.90;;;;;;4379240;32;20105;-62
2023/12/13 09:11:59;;;;;;;0.95;0.75;;;6.10;99.90;;;;;;4371009;32;20187;-61
2023/12/13 09:14:27;;;;;;;3.28;1.95;;;6.20;99.90;;;;;;4370456;32;20730;-62
2023/12/13 09:16:52;;;;;;;1.52;0.95;;;6.20;99.90;;;;;;4374609;32;20245;-63
2023/12/13 09:19:18;;;;;;;0.82;0.60;;;6.10;99.90;;;;;;4381112;32;20819;-62
2023/12/13 09:21:44;;;;;;;2.65;1.17;;;6.10;99.90;;;;;;4381973;32;20447;-63
2023/12/13 09:24:09;;;;;;;0.45;0.45;;;6.20;99.90;;;;;;4385853;32;20093;-60
2023/12/13 09:26:37;;;;;;;0.88;0.75;;;6.20;99.90;;;;;;4375633;32;20573;-63
2023/12/13 09:29:03;;;;;;;0.75;0.75;;;6.20;99.90;;;;;;4373270;32;20943;-61
2023/12/13 09:31:29;;;;;;;0.80;0.80;;;6.20;99.90;;;;;;4385225;32;20149;-62
2023/12/13 09:33:54;;;;;;;0.55;0.55;;;6.10;99.90;;;;;;4360131;32;20205;-62
2023/12/13 09:36:20;;;;;;;0.98;0.98;;;6.20;99.90;;;;;;4368509;32;20675;-60
2023/12/13 09:38:46;;;;;;;0.80;0.80;;;6.20;99.90;;;;;;4381536;32;20453;-61
2023/12/13 09:41:18;;;;;;;0.60;0.60;;;6.20;99.90;;;;;;4370750;32;21294;-63
2023/12/13 09:43:44;;;;;;;0.60;0.60;;;6.20;99.90;;;;;;4372824;32;20192;-63
2023/12/13 09:46:13;;;;;;;0.60;0.60;;;6.20;99.90;;;;;;4369605;32;20101;-62
2023/12/13 09:48:39;;;;;;;2.12;0.88;;;6.20;99.90;;;;;;4358196;32;20101;-64
2023/12/13 09:51:06;;;;;;;1.12;1.02;;;6.20;99.90;;;;;;4378576;32;20683;-63
2023/12/13 09:53:33;;;;;;;0.93;0.70;;;6.20;99.90;;;;;;4383234;32;20082;-63
2023/12/13 09:56:00;;;;;;;2.37;1.70;;;6.20;99.90;;;;;;4384605;32;21071;-60
2023/12/13 09:58:26;;;;;;;1.35;1.25;;;6.20;99.90;;;;;;4385076;32;20830;-63
2023/12/13 10:00:52;;;;;;;0.60;0.60;;;6.30;99.90;;;;;;4369362;32;20232;-63
2023/12/13 10:03:18;;;;;;;0.60;0.60;;;6.30;99.90;;;;;;4381993;32;20498;-63
2023/12/13 10:05:47;;;;;;;0.95;0.93;;;6.30;99.90;;;;;;4390413;32;20467;-62
2023/12/13 10:08:14;;;;;;;0.85;0.85;;;6.30;99.90;;;;;;4384837;32;20176;-62
2023/12/13 10:10:40;;;;;;;1.20;0.80;;;6.30;99.90;;;;;;4364712;32;20202;-63
2023/12/13 10:13:09;;;;;;;1.15;1.05;;;6.30;99.90;;;;;;4363544;32;20100;-63
2023/12/13 10:15:35;;;;;;;3.78;1.70;;;6.30;99.90;;;;;;4376235;32;20455;-63
2023/12/13 10:18:01;;;;;;;2.85;1.12;;;6.30;99.90;;;;;;4385913;32;20114;-63
2023/12/13 10:20:30;;;;;;;32.90;1.20;;;6.40;99.90;;;;;;4392078;32;20120;-62
2023/12/13 10:22:56;;;;;;;10.57;1.48;;;6.40;99.90;;;;;;4364270;32;20921;-61
2023/12/13 10:25:23;;;;;;;1.20;1.17;;;6.40;99.90;;;;;;4383076;32;20105;-58
2023/12/13 10:27:53;;;;;;;6.37;2.25;;;6.50;99.90;;;;;;4360807;32;20152;-60
2023/12/13 10:30:19;;;;;;;2.55;1.20;;;6.50;99.90;;;;;;4386215;32;20577;-58
2023/12/13 10:32:45;;;;;;;0.65;0.65;;;6.50;99.90;;;;;;4364248;32;20101;-61
2023/12/13 10:35:10;;;;;;;0.80;0.80;;;6.50;99.90;;;;;;4392898;32;20078;-60
2023/12/13 10:37:36;;;;;;;16.05;1.20;;;6.40;99.90;;;;;;4393814;32;20093;-60
2023/12/13 10:40:04;;;;;;;4.30;2.35;;;6.50;99.90;;;;;;4373163;32;20807;-61
2023/12/13 10:42:31;;;;;;;1.05;1.05;;;6.40;99.90;;;;;;4384796;32;20148;-59
2023/12/13 10:44:58;;;;;;;1.10;1.10;;;6.50;99.90;;;;;;4375540;32;20545;-60
2023/12/13 10:47:25;;;;;;;2.37;1.17;;;6.40;99.90;;;;;;4385535;32;20106;-58
2023/12/13 10:49:52;;;;;;;2.50;1.60;;;6.40;99.90;;;;;;4374276;32;20105;-60
2023/12/13 10:52:20;;;;;;;1.23;1.15;;;6.40;99.90;;;;;;4388953;32;20081;-60
2023/12/13 10:54:48;;;;;;;0.95;0.95;;;6.40;99.90;;;;;;4388252;32;20813;-60
2023/12/13 10:57:14;;;;;;;1.58;1.48;;;6.40;99.90;;;;;;4376661;32;20102;-59
2023/12/13 10:59:41;;;;;;;4.50;2.08;;;6.40;99.90;;;;;;4369463;32;20304;-58
2023/12/13 11:02:10;;;;;;;3.72;2.17;;;6.40;99.90;;;;;;4393367;32;20789;-58
2023/12/13 11:04:36;;;;;;;0.88;0.88;;;6.40;99.90;;;;;;4393498;32;20454;-60
2023/12/13 11:07:04;;;;;;;2.92;1.90;;;6.40;99.90;;;;;;4388059;32;20087;-58
2023/12/13 11:09:30;;;;;;;2.67;1.73;;;6.40;99.90;;;;;;4365299;32;20189;-59
2023/12/13 11:11:58;;;;;;;3.35;1.37;;;6.40;99.90;;;;;;4389444;32;20066;-60
2023/12/13 11:14:26;;;;;;;8.15;1.87;;;6.40;99.90;;;;;;4391154;32;20208;-60
2023/12/13 11:16:52;;;;;;;1.17;1.05;;;6.40;99.90;;;;;;4382918;32;20181;-60
2023/12/13 11:19:22;;;;;;;1.48;1.15;;;6.40;99.90;;;;;;4368240;32;20781;-59
2023/12/13 11:21:50;;;;;;;2.08;1.55;;;6.40;99.90;;;;;;4384187;32;20070;-60
2023/12/13 11:24:22;;;;;;;2.15;1.15;;;6.50;99.90;;;;;;4374716;32;20688;-62
2023/12/13 11:26:50;;;;;;;1.30;1.23;;;6.40;99.90;;;;;;4384580;32;20093;-60
2023/12/13 11:29:22;;;;;;;0.73;0.73;;;6.40;99.90;;;;;;4389836;32;20092;-60
2023/12/13 11:31:53;;;;;;;5.70;1.85;;;6.50;99.90;;;;;;4378697;32;20071;-61
2023/12/13 11:34:33;;;;;;;0.65;0.65;;;6.50;99.90;;;;;;4401048;32;20089;-59
2023/12/13 11:37:02;;;;;;;1.62;1.42;;;6.40;99.90;;;;;;4396190;32;20108;-62
2023/12/13 11:39:29;;;;;;;1.90;1.27;;;6.40;99.90;;;;;;4384201;32;20231;-58
2023/12/13 11:41:54;;;;;;;1.25;1.15;;;6.50;99.90;;;;;;4377508;32;20072;-58
2023/12/13 11:44:20;;;;;;;1.77;1.67;;;6.50;99.90;;;;;;4399488;32;20617;-60
2023/12/13 11:46:53;;;;;;;0.68;0.68;;;6.40;99.90;;;;;;4385204;32;20073;-60
2023/12/13 11:49:20;;;;;;;1.42;1.33;;;6.40;99.90;;;;;;4396884;32;20145;-61
2023/12/13 11:51:47;;;;;;;1.58;1.40;;;6.40;99.90;;;;;;4392326;32;114287;-60
2023/12/13 11:54:13;;;;;;;0.60;0.60;;;6.40;99.90;;;;;;4384082;32;20081;-60
2023/12/13 11:56:41;;;;;;;0.70;0.70;;;6.50;99.90;;;;;;4357834;32;20104;-61
2023/12/13 11:59:06;;;;;;;0.85;0.85;;;6.60;99.90;;;;;;4385737;32;20435;-61
2023/12/13 12:01:32;;;;;;;3.62;2.00;;;6.60;99.90;;;;;;4372461;32;20074;-62
2023/12/13 12:03:58;;;;;;;0.70;0.70;;;6.60;99.90;;;;;;4378860;32;20074;-61
2023/12/13 12:06:23;;;;;;;1.52;1.23;;;6.70;99.90;;;;;;4380510;32;22100;-60
2023/12/13 12:08:49;;;;;;;1.45;1.35;;;6.70;99.90;;;;;;4384751;32;20078;-62
2023/12/13 12:11:14;;;;;;;0.82;0.82;;;6.70;99.90;;;;;;4377782;32;20168;-62
2023/12/13 12:13:41;;;;;;;0.93;0.93;;;6.60;99.90;;;;;;4383670;32;20070;-61
2023/12/13 12:16:09;;;;;;;0.77;0.77;;;6.60;99.90;;;;;;4385066;32;20840;-60
2023/12/13 12:18:38;;;;;;;3.92;2.25;;;6.60;99.90;;;;;;4389113;32;20185;-61
2023/12/13 12:21:05;;;;;;;2.08;1.58;;;6.60;99.90;;;;;;4369649;32;20919;-61
2023/12/13 12:23:31;;;;;;;1.00;1.00;;;6.60;99.90;;;;;;4364233;32;20745;-64
2023/12/13 12:25:57;;;;;;;0.73;0.73;;;6.60;99.90;;;;;;4391939;32;20098;-61
2023/12/13 12:28:23;;;;;;;3.70;2.17;;;6.60;99.90;;;;;;4387541;32;20188;-63
2023/12/13 12:30:48;;;;;;;0.82;0.82;;;6.60;99.90;;;;;;4384896;32;20447;-61
2023/12/13 12:33:14;;;;;;;0.93;0.88;;;6.60;99.90;;;;;;4387324;32;20078;-61
2023/12/13 12:35:40;;;;;;;1.27;0.95;;;6.60;99.90;;;;;;4384738;32;20865;-63
2023/12/13 12:38:08;;;;;;;7.45;1.98;;;6.60;99.90;;;;;;4383667;32;20089;-63
2023/12/13 12:40:34;;;;;;;0.82;0.80;;;6.60;99.90;;;;;;4372478;32;20097;-63
2023/12/13 12:43:00;;;;;;;0.95;0.90;;;6.70;99.90;;;;;;4384666;32;20775;-62
2023/12/13 12:45:25;;;;;;;6.32;1.50;;;6.70;99.90;;;;;;4387440;32;20086;-62
2023/12/13 12:47:51;;;;;;;5.57;1.90;;;6.70;99.90;;;;;;4383276;32;20950;-59
2023/12/13 12:50:17;;;;;;;0.73;0.70;;;6.70;99.90;;;;;;4392059;32;20096;-61
2023/12/13 12:52:42;;;;;;;1.55;1.45;;;6.70;99.90;;;;;;4394726;32;20548;-62
2023/12/13 12:55:08;;;;;;;1.60;1.27;;;6.70;99.90;;;;;;4393698;32;20794;-62